203-й пикет

Карта отелей и гостиниц, располагающихся рядом с аэропортом 203-й пикет :

203-й пикет Республика Коми 64° 19' 50.9988" N, 57° 22' 19.3188" E
203-й пикет Республика Коми 64° 19' 50.9988" N, 57° 22' 19.3188" E
Код аэродрома ИКАО
UUXD
Код аэродрома RU
УУЬД
Координаты
N64.33083° E057.37203°
Превышение над уровнем моря
110
Основная полоса
08/26
Курс магнитный
081,4/261,4
Длина основной ВПП
18
Ширина основной ВПП
18
Покрытие основной ВПП
Твёрдое (бетон)
Освещение ВПП
Нет
Тип: 
Вертодром
Класс аэродрома: 
Принадлежность: 
ГА
Статус: 
Действующий
Сайт: 
E-mail аэродрома: 
gazavia, gsp@mail.ru
Страна: 
Россия
Регион: 
Республика Коми
Город: 
Дополнительная информация: 
Оператор: ОАО «Севергазпром» Ухтинский филиал ООО Авиапредприятие «Газпромавиа». Взлет и посадка в секторе Ам 040°-140° с ПП2 запрещены.

Найти трансфер

С помощью этой формы Вы можете найти трансфер из аэропорта 203-й пикет в город, аэропорт или вокзал:

Карта места

Javascript is required to view this map.

Погода в аэропортах:

Авиационная погода в Рощино

Регион: 
Погода METAR: 
USTR 251530Z 18006MPS 5000 -SN FEW012 OVC022 M16/M19 Q1027 R21/450357 R30/450553 TEMPO 0600 +SN VV003
Время наблюдения
2021-01-25T15:30:00Z
Температура C
-16.0
Точка росы
-19.0
Направление ветра
180
Скорость ветра (узлы)
12
Метео видимость
3.11
Явления погоды
-SN
Условия полета
MVFR
Аэропорт подробнее: 

Авиационная погода в Могилёве

Регион: 
Погода METAR: 
UMOO 251300Z 11005MPS 1300 R13/1300 BR OVC001 02/02 Q1001 R13/290068 NOSIG RMK QBB040
Время наблюдения
2021-01-25T13:00:00Z
Температура C
2.0
Точка росы
2.0
Направление ветра
110
Скорость ветра (узлы)
10
Метео видимость
0.81
Явления погоды
BR
Условия полета
LIFR
Аэропорт подробнее: 

Авиационная погода в Череповце

Регион: 
Погода METAR: 
ULWC 251530Z 16003MPS 9999 -RA BKN011 OVC016 02/01 Q1009 R21/290366 NOSIG RMK QFE747/0996
Время наблюдения
2021-01-25T15:30:00Z
Температура C
2.0
Точка росы
1.0
Направление ветра
160
Скорость ветра (узлы)
6
Метео видимость
6.21
Явления погоды
-RA
Условия полета
MVFR
Аэропорт подробнее: 

Авиационная погода в Архангельске

Регион: 
Погода METAR: 
ULAA 251530Z 18002MPS 140V230 4500 -SHSNRA BR OVC004CB 01/00 Q1004 R26/590733 NOSIG RMK QBB120 QFE752/1002
Время наблюдения
2021-01-25T15:30:00Z
Температура C
1.0
Точка росы
0.0
Направление ветра
180
Скорость ветра (узлы)
4
Метео видимость
2.8
Явления погоды
-SHSN -SHRA BR
Условия полета
LIFR
Аэропорт подробнее: